Time;durP1;ratioP1;P1;durP2;ratioP2;P2;SDS_P1;SDS_P2;PMS_P1;PMS_P2;Temp;Humidity;BMP_temperature;BMP_pressure;BME280_temperature;BME280_humidity;BME280_pressure;Samples;Min_cycle;Max_cycle;Signal;HPM_P1;HPM_P2
2022/02/23 00:01:18;;;;;;;;;;;;;;;17.13;59.85;100945.44;5007992;28;1844;-34
2022/02/23 00:03:46;;;;;;;;;;;;;;;17.10;60.33;100932.31;4992004;28;1997;-33
2022/02/23 00:06:14;;;;;;;;;;;;;;;17.12;60.12;100962.44;5002639;28;1088;-33
2022/02/23 00:08:42;;;;;;;;;;;;;;;17.10;60.53;100946.50;5003116;28;1646;-33
2022/02/23 00:11:12;;;;;;;;;;;;;;;17.12;60.77;100937.53;5005713;28;1637;-33
2022/02/23 00:13:42;;;;;;;;;;;;;;;17.13;60.74;100939.22;5002105;28;1753;-33
2022/02/23 00:16:09;;;;;;;;;;;;;;;17.13;59.90;100936.53;5007844;28;1705;-33
2022/02/23 00:18:43;;;;;;;;;;;;;;;17.12;60.74;100932.19;5001152;28;1415;-33
2022/02/23 00:21:17;;;;;;;;;;;;;;;17.12;60.20;100937.53;5000324;28;1655;-33
2022/02/23 00:23:44;;;;;;;;;;;;;;;17.10;60.00;100930.47;5000941;28;1966;-33
2022/02/23 00:26:13;;;;;;;;;;;;;;;17.07;60.07;100925.38;5003319;28;1616;-33
2022/02/23 00:28:42;;;;;;;;;;;;;;;17.11;60.05;100928.69;5001078;28;1078;-33
2022/02/23 00:31:10;;;;;;;;;;;;;;;17.10;59.83;100922.47;5015020;28;1769;-33
2022/02/23 00:33:42;;;;;;;;;;;;;;;17.09;60.57;100920.78;5008149;28;1623;-34
2022/02/23 00:36:09;;;;;;;;;;;;;;;17.12;60.43;100917.00;5011372;28;1678;-33
2022/02/23 00:38:39;;;;;;;;;;;;;;;17.07;59.96;100912.03;5003221;28;1499;-34
2022/02/23 00:41:06;;;;;;;;;;;;;;;17.09;60.18;100923.44;5001242;28;1602;-33
2022/02/23 00:43:44;;;;;;;;;;;;;;;17.08;60.79;100927.06;5010286;28;1902;-33
2022/02/23 00:46:13;;;;;;;;;;;;;;;17.08;59.85;100927.06;5002519;28;1825;-33
2022/02/23 00:48:55;;;;;;;;;;;;;;;17.04;60.21;100933.63;5009924;28;1703;-33
2022/02/23 00:51:22;;;;;;;;;;;;;;;17.05;60.36;100932.66;5006503;28;1627;-33
2022/02/23 00:53:49;;;;;;;;;;;;;;;17.05;60.18;100935.34;5002898;28;1633;-33
2022/02/23 00:56:18;;;;;;;;;;;;;;;17.07;60.39;100938.75;5002410;28;1850;-33
2022/02/23 00:58:47;;;;;;;;;;;;;;;17.05;60.59;100942.47;5007830;28;1020;-33
2022/02/23 01:01:14;;;;;;;;;;;;;;;17.03;60.93;100945.28;5011979;28;1844;-34
2022/02/23 01:03:41;;;;;;;;;;;;;;;17.05;60.17;100937.13;4997947;28;1910;-33
2022/02/23 01:06:09;;;;;;;;;;;;;;;17.06;59.82;100942.38;5006616;28;1079;-33
2022/02/23 01:08:38;;;;;;;;;;;;;;;17.06;59.59;100963.75;5012589;28;1992;-33
2022/02/23 01:11:06;;;;;;;;;;;;;;;17.05;60.47;100951.38;4999072;28;1424;-33
2022/02/23 01:13:35;;;;;;;;;;;;;;;17.03;60.74;100950.63;4997836;28;1657;-33
2022/02/23 01:16:05;;;;;;;;;;;;;;;17.06;60.17;100954.88;4998423;28;1669;-33
2022/02/23 01:18:35;;;;;;;;;;;;;;;17.06;60.68;100958.41;5000161;28;1751;-33
2022/02/23 01:21:03;;;;;;;;;;;;;;;17.05;60.38;100956.72;5001823;28;1630;-33
2022/02/23 01:23:33;;;;;;;;;;;;;;;17.02;60.17;100964.94;5010015;28;1969;-33
2022/02/23 01:26:01;;;;;;;;;;;;;;;17.06;60.78;100965.56;5004219;28;1082;-33
2022/02/23 01:28:32;;;;;;;;;;;;;;;17.03;60.09;100950.63;5010121;28;1808;-33
2022/02/23 01:30:59;;;;;;;;;;;;;;;17.06;60.11;100954.88;4996500;28;1663;-33
2022/02/23 01:36:19;;;;;;;;;;;;;;;17.04;59.79;100954.16;5004952;28;2296;-33
2022/02/23 01:38:48;;;;;;;;;;;;;;;17.04;60.03;100963.00;5002792;28;2092;-33
2022/02/23 01:41:19;;;;;;;;;;;;;;;17.04;60.70;100963.00;5004995;28;1654;-33
2022/02/23 01:43:47;;;;;;;;;;;;;;;17.03;60.83;100955.97;5000903;28;1906;-33
2022/02/23 01:46:15;;;;;;;;;;;;;;;17.02;60.31;100964.94;5013143;28;1958;-33
2022/02/23 01:48:47;;;;;;;;;;;;;;;17.03;60.28;100965.78;5010426;28;1571;-33
2022/02/23 01:51:14;;;;;;;;;;;;;;;17.02;60.90;100975.63;5011329;28;1626;-33
2022/02/23 01:53:44;;;;;;;;;;;;;;;17.01;60.28;100981.97;5009509;28;1564;-33
2022/02/23 01:56:11;;;;;;;;;;;;;;;17.03;60.00;100976.47;5000259;28;1682;-33
2022/02/23 01:58:40;;;;;;;;;;;;;;;17.01;60.84;100971.28;4999992;28;1075;-33
2022/02/23 02:01:16;;;;;;;;;;;;;;;17.02;60.69;100974.78;4997372;28;1789;-33
2022/02/23 02:03:48;;;;;;;;;;;;;;;17.01;60.07;100976.63;4998502;28;1910;-33
2022/02/23 02:06:18;;;;;;;;;;;;;;;17.03;60.27;100995.19;5003978;28;1168;-33
2022/02/23 02:08:45;;;;;;;;;;;;;;;17.01;60.53;100989.97;5005026;28;1645;-33
2022/02/23 02:11:12;;;;;;;;;;;;;;;17.01;60.16;101002.47;5002851;28;1630;-33
2022/02/23 02:13:41;;;;;;;;;;;;;;;16.99;60.52;100993.72;5008057;28;1412;-33
2022/02/23 02:16:10;;;;;;;;;;;;;;;17.02;60.02;101005.03;5000336;28;1419;-33
2022/02/23 02:18:38;;;;;;;;;;;;;;;17.00;60.95;101004.28;5010402;28;1941;-33
2022/02/23 02:21:07;;;;;;;;;;;;;;;17.00;60.43;101006.97;5000985;28;1712;-33
2022/02/23 02:23:37;;;;;;;;;;;;;;;16.99;60.17;101023.97;5009159;28;1420;-33
2022/02/23 02:26:05;;;;;;;;;;;;;;;16.97;61.00;101020.56;5008143;28;2067;-33
2022/02/23 02:28:33;;;;;;;;;;;;;;;16.99;60.74;101007.06;5008173;28;1069;-33
2022/02/23 02:31:01;;;;;;;;;;;;;;;16.99;59.85;101013.28;4996359;28;1813;-33
2022/02/23 02:33:29;;;;;;;;;;;;;;;17.00;61.12;101012.31;5012327;28;1757;-33
2022/02/23 02:35:56;;;;;;;;;;;;;;;16.99;60.35;101007.94;5009212;28;1635;-33
2022/02/23 02:38:22;;;;;;;;;;;;;;;17.00;60.44;101038.19;5009999;28;1697;-33
2022/02/23 02:40:52;;;;;;;;;;;;;;;16.98;59.94;101022.25;5003319;28;1088;-33
2022/02/23 02:43:18;;;;;;;;;;;;;;;17.00;60.19;101024.81;5008042;28;1769;-33
2022/02/23 02:45:52;;;;;;;;;;;;;;;17.02;60.03;101033.56;5011089;28;1973;-34
2022/02/23 02:48:22;;;;;;;;;;;;;;;16.98;60.84;101037.44;5000041;28;1692;-33
2022/02/23 02:50:50;;;;;;;;;;;;;;;17.00;59.90;101035.50;5004102;28;1480;-33
2022/02/23 02:53:17;;;;;;;;;;;;;;;16.97;60.67;101035.72;4999125;28;1059;-33
2022/02/23 02:55:47;;;;;;;;;;;;;;;16.97;60.79;101047.28;5006842;28;1750;-33
2022/02/23 02:58:18;;;;;;;;;;;;;;;16.99;61.01;101049.81;5010438;28;1800;-33
2022/02/23 03:03:19;;;;;;;;;;;;;;;16.97;60.88;101051.75;4998967;26;2789;-33
2022/02/23 03:05:47;;;;;;;;;;;;;;;17.00;60.74;101076.44;5033481;28;2034;-32
2022/02/23 03:08:14;;;;;;;;;;;;;;;16.95;60.75;101054.56;5033319;28;1770;-32
2022/02/23 03:10:43;;;;;;;;;;;;;;;16.94;60.51;101071.53;5032980;28;1549;-33
2022/02/23 03:13:10;;;;;;;;;;;;;;;16.96;60.92;101061.59;5033336;28;1586;-33
2022/02/23 03:15:38;;;;;;;;;;;;;;;16.97;60.06;101075.78;5033203;28;1653;-32
2022/02/23 03:18:04;;;;;;;;;;;;;;;16.94;60.32;101062.69;5031055;28;1469;-33
2022/02/23 03:20:30;;;;;;;;;;;;;;;16.94;60.83;101060.84;5033549;28;1084;-32
2022/02/23 03:22:57;;;;;;;;;;;;;;;16.92;60.54;101064.63;5033302;28;1856;-33
2022/02/23 03:25:23;;;;;;;;;;;;;;;16.93;60.32;101069.84;5033189;28;1973;-32
2022/02/23 03:27:50;;;;;;;;;;;;;;;16.92;60.03;101073.47;5033371;28;1775;-32
2022/02/23 03:30:17;;;;;;;;;;;;;;;16.95;60.85;101075.94;5034526;28;1075;-33
2022/02/23 03:32:46;;;;;;;;;;;;;;;16.94;60.87;101074.22;5033114;28;2011;-33
2022/02/23 03:35:12;;;;;;;;;;;;;;;16.96;61.00;101071.44;5032894;28;1917;-32
2022/02/23 03:37:39;;;;;;;;;;;;;;;16.94;60.43;101063.53;5032744;28;1780;-33
2022/02/23 03:40:06;;;;;;;;;;;;;;;16.94;61.01;101074.22;5032834;28;1595;-33
2022/02/23 03:42:32;;;;;;;;;;;;;;;16.93;60.51;101083.22;5032904;28;1578;-32
2022/02/23 03:44:58;;;;;;;;;;;;;;;16.92;60.55;101076.16;5033186;28;2063;-32
2022/02/23 03:47:25;;;;;;;;;;;;;;;16.94;60.93;101076.88;5032427;28;1753;-33
2022/02/23 03:49:53;;;;;;;;;;;;;;;16.95;61.06;101091.09;5032493;28;1574;-33
2022/02/23 03:52:21;;;;;;;;;;;;;;;16.94;60.21;101100.09;5032811;28;1662;-33
2022/02/23 03:54:48;;;;;;;;;;;;;;;16.93;61.26;101104.59;5032852;28;1900;-32
2022/02/23 03:57:14;;;;;;;;;;;;;;;16.90;60.28;101094.13;5032618;28;1732;-33
2022/02/23 03:59:40;;;;;;;;;;;;;;;16.89;60.19;101106.63;5035630;28;1154;-33
2022/02/23 04:02:07;;;;;;;;;;;;;;;16.94;60.76;101106.28;5035000;28;1609;-33
2022/02/23 04:04:33;;;;;;;;;;;;;;;16.90;60.62;101102.97;5036368;28;1902;-33
2022/02/23 04:07:01;;;;;;;;;;;;;;;16.92;60.32;101108.22;5037374;28;1929;-33
2022/02/23 04:09:28;;;;;;;;;;;;;;;16.90;60.06;101104.78;5036517;28;1794;-33
2022/02/23 04:11:54;;;;;;;;;;;;;;;16.91;60.77;101117.19;5036776;28;1115;-32
2022/02/23 04:14:20;;;;;;;;;;;;;;;16.90;60.34;101115.47;5036247;28;1952;-33
2022/02/23 04:16:47;;;;;;;;;;;;;;;16.91;60.88;101111.84;5035938;28;1783;-33
2022/02/23 04:19:13;;;;;;;;;;;;;;;16.92;60.62;101113.56;5036208;28;1726;-32
2022/02/23 04:21:40;;;;;;;;;;;;;;;16.89;61.02;101098.59;5036120;28;1550;-33
2022/02/23 04:24:08;;;;;;;;;;;;;;;16.89;60.13;101097.72;5036043;28;1669;-33
2022/02/23 04:26:35;;;;;;;;;;;;;;;16.91;61.11;101111.84;5036112;28;1970;-33
2022/02/23 04:29:02;;;;;;;;;;;;;;;16.91;61.01;101117.19;5036395;28;1080;-33
2022/02/23 04:31:28;;;;;;;;;;;;;;;16.89;60.47;101125.31;5036538;28;2058;-32
2022/02/23 04:33:55;;;;;;;;;;;;;;;16.89;60.59;101132.47;5036265;28;1699;-33
2022/02/23 04:36:22;;;;;;;;;;;;;;;16.88;61.22;101128.09;5035894;28;1660;-33
2022/02/23 04:38:48;;;;;;;;;;;;;;;16.87;60.64;101119.25;5035946;28;1658;-33
2022/02/23 04:41:16;;;;;;;;;;;;;;;16.86;59.93;101127.34;5036126;28;2270;-33
2022/02/23 04:43:42;;;;;;;;;;;;;;;16.86;61.20;101135.38;5036194;28;1142;-32
2022/02/23 04:46:11;;;;;;;;;;;;;;;16.88;60.05;101130.78;5035586;28;1977;-33
2022/02/23 04:48:38;;;;;;;;;;;;;;;16.85;60.98;101126.50;5035233;28;1442;-32
2022/02/23 04:51:04;;;;;;;;;;;;;;;16.86;60.20;101146.91;5035424;28;1637;-33
2022/02/23 04:53:31;;;;;;;;;;;;;;;16.84;60.30;101164.00;5035743;28;1851;-33
2022/02/23 04:55:58;;;;;;;;;;;;;;;16.84;60.87;101164.84;5036744;28;1023;-32
2022/02/23 04:58:25;;;;;;;;;;;;;;;16.87;61.03;101158.44;5035991;28;2000;-32
2022/02/23 05:00:52;;;;;;;;;;;;;;;16.86;60.65;101162.09;5035849;28;1959;-32
2022/02/23 05:03:18;;;;;;;;;;;;;;;16.87;60.48;101167.31;5034510;28;1437;-33
2022/02/23 05:05:45;;;;;;;;;;;;;;;16.88;60.32;101192.22;5035307;28;2004;-32
2022/02/23 05:08:12;;;;;;;;;;;;;;;16.87;61.21;101179.81;5035164;28;1430;-32
2022/02/23 05:10:39;;;;;;;;;;;;;;;16.86;60.36;101178.97;5034276;28;1327;-32
2022/02/23 05:13:05;;;;;;;;;;;;;;;16.89;60.34;101184.09;5035622;28;1906;-32
2022/02/23 05:15:33;;;;;;;;;;;;;;;16.86;60.96;101173.63;5035295;28;1732;-32
2022/02/23 05:17:59;;;;;;;;;;;;;;;16.85;60.43;101187.06;5035446;28;1677;-32
2022/02/23 05:20:27;;;;;;;;;;;;;;;16.85;61.04;101189.75;5035855;28;1054;-32
2022/02/23 05:22:53;;;;;;;;;;;;;;;16.84;60.53;101196.91;5035240;28;1087;-32
2022/02/23 05:25:20;;;;;;;;;;;;;;;16.83;61.10;101210.38;5035171;28;1947;-32
2022/02/23 05:27:46;;;;;;;;;;;;;;;16.87;60.95;101222.53;5034861;28;1629;-32
2022/02/23 05:30:13;;;;;;;;;;;;;;;16.84;61.05;101212.09;5035408;28;1158;-32
2022/02/23 05:32:42;;;;;;;;;;;;;;;16.86;61.00;101234.19;5034868;28;1897;-33
2022/02/23 05:35:09;;;;;;;;;;;;;;;16.84;60.33;101238.81;4337138;28;10000865;-34
2022/02/23 05:37:35;;;;;;;;;;;;;;;16.87;61.01;101251.91;5027562;28;1809;-33
2022/02/23 05:40:02;;;;;;;;;;;;;;;16.87;60.20;101254.59;5028294;28;1666;-34
2022/02/23 05:42:28;;;;;;;;;;;;;;;16.84;60.83;101249.50;5027976;28;1478;-33
2022/02/23 05:44:55;;;;;;;;;;;;;;;16.83;60.54;101263.78;5025743;28;1906;-34
2022/02/23 05:47:22;;;;;;;;;;;;;;;16.84;60.44;101265.50;5028176;28;1569;-32
2022/02/23 05:49:49;;;;;;;;;;;;;;;16.82;60.84;101267.44;5030720;28;1583;-33
2022/02/23 05:52:16;;;;;;;;;;;;;;;16.83;60.30;101275.34;5029986;28;1984;-33
2022/02/23 05:54:43;;;;;;;;;;;;;;;16.83;60.48;101280.69;5029924;28;1739;-34
2022/02/23 05:57:10;;;;;;;;;;;;;;;16.84;60.81;101281.53;5029748;28;2054;-34
2022/02/23 05:59:36;;;;;;;;;;;;;;;16.83;60.71;101285.16;5030054;28;1757;-33
2022/02/23 06:02:03;;;;;;;;;;;;;;;16.84;60.09;101282.38;5028271;28;1613;-33
2022/02/23 06:04:29;;;;;;;;;;;;;;;16.83;60.26;101282.50;5029713;28;1727;-33
2022/02/23 06:06:57;;;;;;;;;;;;;;;16.85;60.63;101289.44;5029664;28;1939;-33
2022/02/23 06:09:24;;;;;;;;;;;;;;;16.80;60.75;101302.22;5029558;28;1850;-32
2022/02/23 06:11:51;;;;;;;;;;;;;;;16.82;60.17;101304.84;5029321;28;1930;-33
2022/02/23 06:14:18;;;;;;;;;;;;;;;16.81;60.26;101297.75;5029348;28;1541;-33
2022/02/23 06:16:44;;;;;;;;;;;;;;;16.79;60.25;101294.31;5029748;28;1669;-34
2022/02/23 06:19:11;;;;;;;;;;;;;;;16.81;60.40;101305.75;5030003;28;1705;-33
2022/02/23 06:21:37;;;;;;;;;;;;;;;16.82;60.27;101296.81;5029362;28;1922;-34
2022/02/23 06:24:06;;;;;;;;;;;;;;;16.81;61.32;101295.97;5029078;28;1618;-33
2022/02/23 06:26:32;;;;;;;;;;;;;;;16.83;60.74;101301.19;5029607;28;1902;-33
2022/02/23 06:28:59;;;;;;;;;;;;;;;16.84;60.54;101303.75;5030208;28;2292;-34
2022/02/23 06:31:25;;;;;;;;;;;;;;;16.84;61.19;101318.94;5029763;28;1829;-32
2022/02/23 06:33:52;;;;;;;;;;;;;;;16.85;60.58;101323.31;5030167;28;1854;-33
2022/02/23 06:36:18;;;;;;;;;;;;;;;16.83;60.26;101307.41;5027210;28;2505;-33
2022/02/23 06:38:45;;;;;;;;;;;;;;;16.82;60.38;101324.38;5028325;28;1582;-33
2022/02/23 06:41:14;;;;;;;;;;;;;;;16.83;60.66;101319.88;5028472;28;1510;-33
2022/02/23 06:43:41;;;;;;;;;;;;;;;16.81;60.92;101325.34;5029656;28;2093;-33
2022/02/23 06:46:07;;;;;;;;;;;;;;;16.86;60.51;101314.34;5029299;28;1971;-33
2022/02/23 06:48:36;;;;;;;;;;;;;;;16.81;60.49;101324.44;5029021;28;2027;-33
2022/02/23 06:51:02;;;;;;;;;;;;;;;16.85;60.29;101337.53;5029015;28;1663;-33
2022/02/23 06:53:29;;;;;;;;;;;;;;;16.88;61.39;101336.47;5028863;28;1743;-33
2022/02/23 06:55:55;;;;;;;;;;;;;;;16.91;61.73;101338.94;5029429;28;1592;-33
2022/02/23 06:58:23;;;;;;;;;;;;;;;16.94;63.04;101352.06;5028829;28;1972;-33
2022/02/23 07:00:50;;;;;;;;;;;;;;;16.87;63.57;101340.06;5028274;28;1548;-35
2022/02/23 07:03:16;;;;;;;;;;;;;;;16.86;64.28;101359.75;5027507;28;1572;-34
2022/02/23 07:05:43;;;;;;;;;;;;;;;16.87;63.53;101361.44;5030661;28;1910;-33
2022/02/23 07:08:10;;;;;;;;;;;;;;;16.86;63.11;101365.09;5028278;28;1414;-33
2022/02/23 07:10:37;;;;;;;;;;;;;;;16.90;62.72;101369.25;5027353;28;1487;-33
2022/02/23 07:13:05;;;;;;;;;;;;;;;16.84;61.77;101369.69;5027321;28;1520;-33
2022/02/23 07:15:33;;;;;;;;;;;;;;;16.89;61.95;101362.19;5022624;28;1549;-33
2022/02/23 07:18:00;;;;;;;;;;;;;;;16.85;62.04;101364.25;5032138;28;1239;-34
2022/02/23 07:20:27;;;;;;;;;;;;;;;16.86;63.10;101368.63;5033294;28;1052;-33
2022/02/23 07:22:53;;;;;;;;;;;;;;;16.87;62.40;101374.81;5031896;28;1784;-32
2022/02/23 07:25:20;;;;;;;;;;;;;;;16.81;62.33;101354.75;5032395;28;1906;-32
2022/02/23 07:27:47;;;;;;;;;;;;;;;16.84;62.62;101377.69;5032741;28;1415;-32
2022/02/23 07:30:16;;;;;;;;;;;;;;;16.81;62.73;101369.84;5033486;28;2057;-32
2022/02/23 07:32:44;;;;;;;;;;;;;;;16.83;61.97;101379.53;5032907;28;1769;-33
2022/02/23 07:35:11;;;;;;;;;;;;;;;16.83;62.58;101382.19;5032567;28;1632;-33
2022/02/23 07:37:38;;;;;;;;;;;;;;;16.82;62.29;101377.81;5032869;28;1569;-32
2022/02/23 07:40:08;;;;;;;;;;;;;;;16.85;61.91;101368.72;5033156;28;1602;-32
2022/02/23 07:42:35;;;;;;;;;;;;;;;16.81;62.28;101368.09;5032927;28;1693;-32
2022/02/23 07:45:01;;;;;;;;;;;;;;;16.81;61.86;101365.41;5033721;28;1031;-32
2022/02/23 07:47:27;;;;;;;;;;;;;;;16.85;62.39;101366.03;5032923;28;1969;-32
2022/02/23 07:49:56;;;;;;;;;;;;;;;16.84;62.73;101364.34;5028767;28;1963;-32
2022/02/23 07:52:23;;;;;;;;;;;;;;;16.86;62.80;101359.75;5032881;28;1649;-32
2022/02/23 07:54:50;;;;;;;;;;;;;;;16.88;62.64;101364.00;5032522;28;1487;-32
2022/02/23 07:57:16;;;;;;;;;;;;;;;16.92;62.22;101369.16;5032454;28;1717;-33
2022/02/23 07:59:43;;;;;;;;;;;;;;;16.94;62.11;101362.75;5033355;28;1160;-32
2022/02/23 08:02:09;;;;;;;;;;;;;;;16.99;61.59;101359.72;5031188;28;1581;-32
2022/02/23 08:04:36;;;;;;;;;;;;;;;17.03;61.12;101358.56;5032431;28;1629;-32
2022/02/23 08:07:04;;;;;;;;;;;;;;;17.08;61.01;101351.94;5032729;28;1906;-33
2022/02/23 08:09:30;;;;;;;;;;;;;;;17.06;60.84;101353.00;5032511;28;1837;-33
2022/02/23 08:11:57;;;;;;;;;;;;;;;17.04;61.62;101358.44;5033008;28;1100;-32
2022/02/23 08:14:24;;;;;;;;;;;;;;;17.05;61.65;101353.94;5032405;28;1831;-33
2022/02/23 08:19:35;;;;;;;;;;;;;;;17.07;62.18;101347.56;5009610;28;1491;-33
2022/02/23 08:22:03;;;;;;;;;;;;;;;17.07;61.50;101360.91;5032374;28;1656;-33
2022/02/23 08:24:33;;;;;;;;;;;;;;;17.09;61.84;101344.78;5032320;28;1602;-32
2022/02/23 08:27:00;;;;;;;;;;;;;;;17.12;62.18;101344.56;5023983;28;1909;-32
2022/02/23 08:29:26;;;;;;;;;;;;;;;17.08;62.37;101349.25;5033060;28;1066;-32
2022/02/23 08:31:53;;;;;;;;;;;;;;;17.11;62.38;101340.19;5032506;28;1791;-32
2022/02/23 08:34:20;;;;;;;;;;;;;;;17.07;62.30;101336.03;5033028;28;1065;-32
2022/02/23 08:36:47;;;;;;;;;;;;;;;17.08;62.19;101338.56;5032852;28;1817;-33
2022/02/23 08:39:14;;;;;;;;;;;;;;;17.17;61.99;101346.88;5032001;28;1478;-32
2022/02/23 08:41:41;;;;;;;;;;;;;;;17.13;62.19;101340.94;5031830;28;1692;-33
2022/02/23 08:44:08;;;;;;;;;;;;;;;17.14;61.93;101331.94;5031235;28;1707;-33
2022/02/23 08:46:35;;;;;;;;;;;;;;;17.14;62.24;101336.44;5034881;28;1969;-33
2022/02/23 08:49:01;;;;;;;;;;;;;;;17.19;61.99;101336.94;5035260;28;1414;-32
2022/02/23 08:51:28;;;;;;;;;;;;;;;17.22;61.98;101345.59;5035630;28;1850;-32
2022/02/23 08:53:54;;;;;;;;;;;;;;;17.23;61.70;101347.31;5035326;28;1611;-33
2022/02/23 08:56:21;;;;;;;;;;;;;;;17.28;61.78;101352.34;5033495;28;2443;-34
2022/02/23 08:58:49;;;;;;;;;;;;;;;17.30;61.74;101356.59;5035702;28;1078;-32
2022/02/23 09:01:16;;;;;;;;;;;;;;;17.28;61.98;101355.84;5035356;28;1819;-33
2022/02/23 09:03:43;;;;;;;;;;;;;;;17.28;61.49;101349.66;5033972;28;1805;-33
2022/02/23 09:06:09;;;;;;;;;;;;;;;17.32;61.64;101355.66;5036007;28;1977;-33
2022/02/23 09:08:36;;;;;;;;;;;;;;;17.29;61.71;101351.38;5035630;28;2000;-33
2022/02/23 09:11:02;;;;;;;;;;;;;;;17.33;61.80;101355.53;5035457;28;1470;-33
2022/02/23 09:13:29;;;;;;;;;;;;;;;17.36;61.21;101362.47;5035384;28;1631;-33
2022/02/23 09:15:57;;;;;;;;;;;;;;;17.37;61.76;101369.50;5035514;28;1778;-33
2022/02/23 09:18:23;;;;;;;;;;;;;;;17.39;61.60;101363.13;5035381;28;1586;-32
2022/02/23 09:20:50;;;;;;;;;;;;;;;17.35;61.78;101361.63;5035093;28;1566;-33
2022/02/23 09:23:18;;;;;;;;;;;;;;;17.32;61.65;101364.50;5036029;28;996;-33
2022/02/23 09:25:45;;;;;;;;;;;;;;;17.28;62.09;101365.69;5035047;28;1868;-32
2022/02/23 09:28:11;;;;;;;;;;;;;;;17.27;62.08;101366.69;5035124;28;1979;-32
2022/02/23 09:30:38;;;;;;;;;;;;;;;17.27;61.77;101364.00;5035397;28;1856;-32
2022/02/23 09:33:05;;;;;;;;;;;;;;;17.30;61.65;101372.63;5035335;28;1655;-34
2022/02/23 09:35:33;;;;;;;;;;;;;;;17.26;61.57;101367.63;5035496;28;1247;-32
2022/02/23 09:38:01;;;;;;;;;;;;;;;17.25;61.81;101376.63;5034706;28;1749;-33
2022/02/23 09:40:28;;;;;;;;;;;;;;;17.23;61.75;101358.00;5034727;28;1776;-33
2022/02/23 09:42:54;;;;;;;;;;;;;;;17.22;61.86;101372.31;5034656;28;1900;-33
2022/02/23 09:45:21;;;;;;;;;;;;;;;17.21;61.74;101373.31;5035102;28;1605;-35
2022/02/23 09:47:49;;;;;;;;;;;;;;;17.23;62.44;101367.81;5034884;28;1977;-33
2022/02/23 09:50:20;;;;;;;;;;;;;;;17.21;61.75;101359.94;5034384;28;1618;-33
2022/02/23 09:52:47;;;;;;;;;;;;;;;17.24;62.18;101361.53;5034378;28;2017;-32
2022/02/23 09:55:13;;;;;;;;;;;;;;;17.21;61.58;101359.06;5034864;28;1669;-32
2022/02/23 09:57:40;;;;;;;;;;;;;;;17.19;61.71;101356.53;5034064;28;1617;-33
2022/02/23 10:00:07;;;;;;;;;;;;;;;17.20;61.67;101363.56;5035189;28;1055;-32
2022/02/23 10:02:35;;;;;;;;;;;;;;;17.18;62.01;101353.97;5032856;28;1631;-32
2022/02/23 10:05:02;;;;;;;;;;;;;;;17.18;62.30;101353.97;5034197;28;1859;-33
2022/02/23 10:07:31;;;;;;;;;;;;;;;17.17;62.18;101358.47;5035219;28;1898;-33
2022/02/23 10:10:00;;;;;;;;;;;;;;;17.19;61.80;101350.31;5036096;28;1800;-33
2022/02/23 10:12:27;;;;;;;;;;;;;;;17.17;61.95;101342.41;5034879;28;1932;-33
2022/02/23 10:15:04;;;;;;;;;;;;;;;17.18;62.33;101348.59;5034959;28;1008;-33
2022/02/23 10:17:36;;;;;;;;;;;;;;;17.17;62.03;101342.41;5034096;28;1717;-33
2022/02/23 10:20:02;;;;;;;;;;;;;;;17.16;62.30;101345.19;5033906;28;1772;-33
2022/02/23 10:22:44;;;;;;;;;;;;;;;17.14;62.35;101336.44;5030316;28;1986;-33
2022/02/23 10:25:10;;;;;;;;;;;;;;;17.13;62.54;101345.41;5033829;28;1626;-33
2022/02/23 10:27:38;;;;;;;;;;;;;;;17.13;62.52;101342.72;5033571;28;1906;-33
2022/02/23 10:30:05;;;;;;;;;;;;;;;17.12;62.07;101349.91;5034308;28;1122;-33
2022/02/23 10:32:32;;;;;;;;;;;;;;;17.10;62.17;101347.31;5034014;28;1744;-33
2022/02/23 10:34:59;;;;;;;;;;;;;;;17.10;62.01;101352.66;5034506;28;1027;-33
2022/02/23 10:37:27;;;;;;;;;;;;;;;17.06;62.12;101347.66;5034267;28;1016;-33
2022/02/23 10:39:57;;;;;;;;;;;;;;;17.08;62.00;101343.91;5033328;28;1474;-33
2022/02/23 10:42:26;;;;;;;;;;;;;;;17.08;62.37;101359.09;5034105;28;1659;-33
2022/02/23 10:44:53;;;;;;;;;;;;;;;17.08;61.80;101356.44;5029503;28;1928;-33
2022/02/23 10:47:23;;;;;;;;;;;;;;;17.05;62.29;101343.25;5033285;28;2077;-33
2022/02/23 10:50:04;;;;;;;;;;;;;;;17.04;61.65;101355.78;5033466;28;1558;-33
2022/02/23 10:52:31;;;;;;;;;;;;;;;17.04;62.30;101358.44;5033643;28;1793;-33
2022/02/23 10:55:14;;;;;;;;;;;;;;;17.04;62.24;101342.41;5033567;28;1646;-33
2022/02/23 10:57:42;;;;;;;;;;;;;;;17.06;62.05;101353.84;5033697;28;1637;-33
2022/02/23 11:00:12;;;;;;;;;;;;;;;17.05;62.11;101348.59;5033815;28;1088;-33
2022/02/23 11:02:52;;;;;;;;;;;;;;;17.04;62.04;101350.44;5031954;28;1553;-33
2022/02/23 11:05:23;;;;;;;;;;;;;;;17.01;62.06;101342.66;5033343;28;1950;-33
2022/02/23 11:07:50;;;;;;;;;;;;;;;17.05;62.20;101354.84;5032870;28;1905;-33
2022/02/23 11:10:18;;;;;;;;;;;;;;;17.06;62.17;101345.84;5032960;28;1958;-33
2022/02/23 11:12:45;;;;;;;;;;;;;;;17.02;61.93;101333.66;5033198;28;1689;-33
2022/02/23 11:15:13;;;;;;;;;;;;;;;17.03;61.88;101334.50;5034002;28;1059;-33
2022/02/23 11:17:40;;;;;;;;;;;;;;;17.05;61.72;101333.47;5033209;28;1761;-33
2022/02/23 11:20:07;;;;;;;;;;;;;;;17.05;60.84;101346.81;5032838;28;1720;-33
2022/02/23 11:22:33;;;;;;;;;;;;;;;17.03;62.04;101332.72;5032931;28;1569;-33
2022/02/23 11:25:00;;;;;;;;;;;;;;;17.04;62.11;101341.56;5032524;28;1555;-33
2022/02/23 11:27:31;;;;;;;;;;;;;;;17.04;62.12;101339.75;5033110;28;1977;-33
2022/02/23 11:30:05;;;;;;;;;;;;;;;17.05;61.91;101330.78;5033340;28;1022;-33
2022/02/23 11:32:32;;;;;;;;;;;;;;;17.04;61.29;101336.22;5033025;28;1994;-33
2022/02/23 11:34:58;;;;;;;;;;;;;;;17.06;61.69;101340.50;5033060;28;1824;-33
2022/02/23 11:37:29;;;;;;;;;;;;;;;17.06;61.61;101342.31;5033378;28;1798;-33
2022/02/23 11:39:56;;;;;;;;;;;;;;;17.05;61.79;101338.78;5032855;28;1738;-33
2022/02/23 11:42:23;;;;;;;;;;;;;;;17.06;61.71;101335.16;5032697;28;1709;-33
2022/02/23 11:45:05;;;;;;;;;;;;;;;17.04;61.55;101334.41;5033666;28;1048;-33
2022/02/23 11:47:32;;;;;;;;;;;;;;;17.08;61.89;101343.91;5032568;28;1910;-33
2022/02/23 11:50:02;;;;;;;;;;;;;;;17.08;61.79;101333.22;5032897;28;1780;-33
2022/02/23 11:52:30;;;;;;;;;;;;;;;17.07;61.80;101347.56;5032450;28;1315;-33
2022/02/23 11:54:58;;;;;;;;;;;;;;;17.05;61.84;101327.22;5032648;28;1700;-33
2022/02/23 11:57:42;;;;;;;;;;;;;;;17.07;61.81;101334.19;5032558;28;1490;-33
2022/02/23 12:00:12;;;;;;;;;;;;;;;17.05;61.39;101328.09;5033163;28;1084;-33
2022/02/23 12:02:40;;;;;;;;;;;;;;;17.03;61.69;101329.16;5031004;28;1733;-34
2022/02/23 12:05:07;;;;;;;;;;;;;;;17.04;61.88;101342.41;5032709;28;1764;-33
2022/02/23 12:07:47;;;;;;;;;;;;;;;17.06;61.35;101342.31;5032345;28;1965;-33
2022/02/23 12:10:14;;;;;;;;;;;;;;;17.02;61.14;101333.66;5024152;28;1666;-33
2022/02/23 12:12:41;;;;;;;;;;;;;;;17.05;61.79;101330.78;5032484;28;1618;-33
2022/02/23 12:15:08;;;;;;;;;;;;;;;17.02;61.32;101328.31;5033480;28;1016;-33
2022/02/23 12:17:53;;;;;;;;;;;;;;;17.01;61.18;101337.31;5032460;28;1882;-33
2022/02/23 12:20:38;;;;;;;;;;;;;;;17.00;61.93;101332.91;5034300;28;1768;-33
2022/02/23 12:23:06;;;;;;;;;;;;;;;17.01;61.78;101337.31;5036199;28;1924;-33
2022/02/23 12:25:47;;;;;;;;;;;;;;;17.03;61.38;101339.84;5036237;28;1805;-33
2022/02/23 12:28:14;;;;;;;;;;;;;;;17.01;61.86;101331.97;5031469;28;1886;-33
2022/02/23 12:30:40;;;;;;;;;;;;;;;17.01;61.96;101331.97;5019339;28;1760;-34
2022/02/23 12:33:13;;;;;;;;;;;;;;;17.03;61.61;101339.84;5036817;28;1002;-33
2022/02/23 12:35:40;;;;;;;;;;;;;;;17.02;61.65;101322.97;5036299;28;1950;-33
2022/02/23 12:38:07;;;;;;;;;;;;;;;17.02;61.30;101322.97;5036070;28;1518;-33
2022/02/23 12:40:35;;;;;;;;;;;;;;;17.04;61.98;101322.88;5035945;28;1720;-33
2022/02/23 12:43:05;;;;;;;;;;;;;;;17.05;61.23;101311.19;5033862;28;1550;-35
2022/02/23 12:45:31;;;;;;;;;;;;;;;17.05;61.39;101314.75;5036188;28;1998;-33
2022/02/23 12:48:00;;;;;;;;;;;;;;;17.03;61.44;101319.34;5035736;28;1910;-33
2022/02/23 12:50:28;;;;;;;;;;;;;;;17.01;61.86;101321.28;5035769;28;1843;-33
2022/02/23 12:52:54;;;;;;;;;;;;;;;17.02;61.26;101322.97;5031897;28;1951;-33
2022/02/23 12:55:21;;;;;;;;;;;;;;;17.02;61.30;101327.47;5035758;28;1614;-33
2022/02/23 12:57:52;;;;;;;;;;;;;;;16.99;60.67;101311.63;5035900;28;1795;-33